createdAt,value
2022-09-15T00:00:52.127Z,100.00
2022-09-15T00:04:54.338Z,100.00
2022-09-15T00:13:27.474Z,100.00
2022-09-15T00:17:32.188Z,100.00
2022-09-15T00:21:41.596Z,100.00
2022-09-15T00:25:51.255Z,100.00
2022-09-15T00:30:03.814Z,100.00
2022-09-15T00:34:14.365Z,100.00
2022-09-15T00:38:17.923Z,100.00
2022-09-15T00:42:28.594Z,100.00
2022-09-15T00:46:42.542Z,100.00
2022-09-15T00:50:55.871Z,100.00
2022-09-15T00:59:41.838Z,100.00
2022-09-15T01:03:48.581Z,100.00
2022-09-15T01:12:44.092Z,100.00
2022-09-15T01:17:28.800Z,100.00
2022-09-15T01:22:15.351Z,100.00
2022-09-15T01:26:55.735Z,100.00
2022-09-15T01:31:29.901Z,100.00
2022-09-15T01:35:43.802Z,100.00
2022-09-15T01:39:56.054Z,100.00
2022-09-15T01:44:24.826Z,100.00
2022-09-15T01:48:37.578Z,100.00
2022-09-15T01:52:48.998Z,100.00
2022-09-15T01:56:55.666Z,100.00
2022-09-15T02:01:24.331Z,100.00
2022-09-15T02:05:42.425Z,100.00
2022-09-15T02:09:57.266Z,100.00
2022-09-15T02:14:20.738Z,100.00
2022-09-15T02:18:35.438Z,100.00
2022-09-15T02:22:47.932Z,100.00
2022-09-15T02:26:53.861Z,100.00
2022-09-15T02:31:01.255Z,100.00
2022-09-15T02:35:13.383Z,100.00
2022-09-15T02:39:21.802Z,100.00
2022-09-15T02:43:27.863Z,100.00
2022-09-15T02:56:25.603Z,100.00
2022-09-15T03:00:35.795Z,100.00
2022-09-15T03:04:38.359Z,100.00
2022-09-15T03:08:52.786Z,100.00
2022-09-15T03:13:05.727Z,100.00
2022-09-15T03:17:12.128Z,100.00
2022-09-15T03:21:25.429Z,100.00
2022-09-15T03:25:28.444Z,100.00
2022-09-15T03:29:38.407Z,100.00
2022-09-15T03:33:49.936Z,100.00
2022-09-15T03:37:54.870Z,100.00
2022-09-15T03:41:58.660Z,100.00
2022-09-15T03:46:08.372Z,100.00
2022-09-15T03:50:14.217Z,100.00
2022-09-15T03:54:23.963Z,100.00
2022-09-15T03:58:30.873Z,100.00
2022-09-15T04:02:40.556Z,100.00
2022-09-15T04:06:45.288Z,100.00
2022-09-15T04:10:58.078Z,100.00
2022-09-15T04:15:00.553Z,100.00
2022-09-15T04:19:05.638Z,100.00
2022-09-15T04:23:18.374Z,100.00
2022-09-15T04:27:24.669Z,100.00
2022-09-15T04:31:43.369Z,100.00
2022-09-15T04:36:01.402Z,100.00
2022-09-15T04:40:09.954Z,100.00
2022-09-15T04:44:16.006Z,100.00
2022-09-15T04:48:19.983Z,100.00
2022-09-15T04:52:29.854Z,100.00
2022-09-15T04:56:32.008Z,100.00
2022-09-15T05:00:40.107Z,100.00
2022-09-15T05:09:09.258Z,100.00
2022-09-15T05:13:12.246Z,100.00
2022-09-15T05:17:15.868Z,100.00
2022-09-15T05:21:20.980Z,100.00
2022-09-15T05:25:22.753Z,100.00
2022-09-15T05:29:25.757Z,100.00
2022-09-15T05:37:49.201Z,100.00
2022-09-15T05:41:53.338Z,100.00
2022-09-15T05:45:59.081Z,100.00
2022-09-15T05:50:05.284Z,99.08
2022-09-15T05:54:08.767Z,99.07
2022-09-15T05:58:21.971Z,96.65
2022-09-15T06:02:24.008Z,95.21
2022-09-15T06:06:25.857Z,94.85
2022-09-15T06:10:27.243Z,93.95
2022-09-15T06:14:28.634Z,92.56
2022-09-15T06:18:29.927Z,89.70
2022-09-15T06:22:31.498Z,88.35
2022-09-15T06:26:39.594Z,88.46
2022-09-15T06:30:40.828Z,89.70
2022-09-15T06:34:42.124Z,90.37
2022-09-15T06:38:44.158Z,91.17
2022-09-15T06:42:53.699Z,93.25
2022-09-15T06:46:55.140Z,93.80
2022-09-15T06:50:57.609Z,93.36
2022-09-15T06:54:59.406Z,93.34
2022-09-15T06:59:11.695Z,93.50
2022-09-15T07:03:13.870Z,94.01
2022-09-15T07:07:24.777Z,94.65
2022-09-15T07:11:28.782Z,95.24
2022-09-15T07:15:41.809Z,95.79
2022-09-15T07:19:48.324Z,95.92
2022-09-15T07:23:50.280Z,96.74
2022-09-15T07:27:54.213Z,96.32
2022-09-15T07:32:02.367Z,95.12
2022-09-15T07:36:05.197Z,95.46
2022-09-15T07:40:08.916Z,95.28
2022-09-15T07:44:13.060Z,93.44
2022-09-15T07:48:14.545Z,94.45
2022-09-15T07:52:22.617Z,94.28
2022-09-15T07:56:24.572Z,93.28
2022-09-15T08:00:26.580Z,93.74
2022-09-15T08:04:28.115Z,93.10
2022-09-15T08:08:29.986Z,92.06
2022-09-15T08:12:34.132Z,90.92
2022-09-15T08:16:35.783Z,90.42
2022-09-15T08:20:41.749Z,91.25
2022-09-15T08:24:50.640Z,91.03
2022-09-15T08:28:52.143Z,90.45
2022-09-15T08:32:53.649Z,89.33
2022-09-15T08:36:57.144Z,89.22
2022-09-15T08:41:05.531Z,89.39
2022-09-15T08:45:11.901Z,88.66
2022-09-15T08:49:35.534Z,87.78
2022-09-15T08:53:49.844Z,86.68
2022-09-15T08:57:54.309Z,83.40
2022-09-15T09:02:01.543Z,81.33
2022-09-15T09:06:34.978Z,81.00
2022-09-15T09:10:51.705Z,79.33
2022-09-15T09:14:59.277Z,78.44
2022-09-15T09:19:06.494Z,78.78
2022-09-15T09:23:12.558Z,78.92
2022-09-15T09:27:15.749Z,78.61
2022-09-15T09:31:21.452Z,76.65
2022-09-15T09:35:22.837Z,75.90
2022-09-15T09:39:25.719Z,74.75
2022-09-15T09:43:34.729Z,73.36
2022-09-15T09:47:36.245Z,73.46
2022-09-15T09:51:57.128Z,71.89
2022-09-15T09:56:17.490Z,66.54
2022-09-15T10:00:38.613Z,66.11
2022-09-15T10:04:40.976Z,66.18
2022-09-15T10:09:14.947Z,65.89
2022-09-15T10:13:16.400Z,64.71
2022-09-15T10:17:26.299Z,64.88
2022-09-15T10:21:27.617Z,63.09
2022-09-15T10:25:49.299Z,61.99
2022-09-15T10:29:53.369Z,63.53
2022-09-15T10:34:01.888Z,62.62
2022-09-15T10:38:06.201Z,62.06
2022-09-15T10:42:13.691Z,60.08
2022-09-15T10:46:25.410Z,61.98
2022-09-15T10:50:31.433Z,60.28
2022-09-15T10:55:07.836Z,61.59
2022-09-15T10:59:39.939Z,62.73
2022-09-15T11:04:07.954Z,59.90
2022-09-15T11:08:21.784Z,58.69
2022-09-15T11:12:29.662Z,58.32
2022-09-15T11:16:42.106Z,58.04
2022-09-15T11:21:02.961Z,56.65
2022-09-15T11:25:18.020Z,53.56
2022-09-15T11:29:25.673Z,53.62
2022-09-15T11:33:49.961Z,51.48
2022-09-15T11:37:52.581Z,51.95
2022-09-15T11:42:06.868Z,53.32
2022-09-15T11:46:11.324Z,53.02
2022-09-15T11:50:30.973Z,51.66
2022-09-15T11:54:44.779Z,52.86
2022-09-15T11:58:55.276Z,52.03
2022-09-15T12:02:56.863Z,52.42
2022-09-15T12:07:12.378Z,52.27
2022-09-15T12:11:19.649Z,51.26
2022-09-15T12:15:29.054Z,50.28
2022-09-15T12:19:35.961Z,53.10
2022-09-15T12:23:41.021Z,49.33
2022-09-15T12:27:42.907Z,50.45
2022-09-15T12:31:51.853Z,50.53
2022-09-15T12:36:01.770Z,47.47
2022-09-15T12:40:40.160Z,48.03
2022-09-15T12:44:45.944Z,46.57
2022-09-15T12:48:50.061Z,49.56
2022-09-15T12:53:22.791Z,49.22
2022-09-15T12:57:43.716Z,49.71
2022-09-15T13:01:51.149Z,49.68
2022-09-15T13:10:34.751Z,47.84
2022-09-15T13:14:40.813Z,46.72
2022-09-15T13:18:51.017Z,48.23
2022-09-15T13:22:56.236Z,47.15
2022-09-15T13:26:58.017Z,46.75
2022-09-15T13:31:33.841Z,46.58
2022-09-15T13:35:52.324Z,49.33
2022-09-15T13:40:07.535Z,50.01
2022-09-15T13:44:21.329Z,50.01
2022-09-15T13:49:12.714Z,49.42
2022-09-15T13:53:25.217Z,51.14
2022-09-15T14:01:50.922Z,51.31
2022-09-15T14:06:16.545Z,52.38
2022-09-15T14:10:20.977Z,52.71
2022-09-15T14:14:33.606Z,52.91
2022-09-15T14:18:43.836Z,49.84
2022-09-15T14:22:49.438Z,52.15
2022-09-15T14:26:56.948Z,52.79
2022-09-15T14:31:00.017Z,53.96
2022-09-15T14:35:05.424Z,52.92
2022-09-15T14:39:22.891Z,53.77
2022-09-15T14:43:30.531Z,51.99
2022-09-15T14:47:31.840Z,52.72
2022-09-15T14:51:34.125Z,53.98
2022-09-15T14:55:40.407Z,53.01
2022-09-15T14:59:45.076Z,51.62
2022-09-15T15:03:50.677Z,53.50
2022-09-15T15:07:52.368Z,53.88
2022-09-15T15:11:56.818Z,54.22
2022-09-15T15:15:58.854Z,55.06
2022-09-15T15:20:01.679Z,55.47
2022-09-15T15:24:23.891Z,56.00
2022-09-15T15:28:28.182Z,55.63
2022-09-15T15:32:34.374Z,56.94
2022-09-15T15:36:36.303Z,57.22
2022-09-15T15:40:45.907Z,55.84
2022-09-15T15:45:13.161Z,57.40
2022-09-15T15:49:14.837Z,56.03
2022-09-15T15:53:16.550Z,55.00
2022-09-15T15:57:22.508Z,56.75
2022-09-15T16:01:23.841Z,57.89
2022-09-15T16:05:26.553Z,61.46
2022-09-15T16:09:31.584Z,57.80
2022-09-15T16:13:34.913Z,58.78
2022-09-15T16:17:37.872Z,57.85
2022-09-15T16:21:49.181Z,57.89
2022-09-15T16:25:57.442Z,61.14
2022-09-15T16:29:59.265Z,61.42
2022-09-15T16:34:14.801Z,62.77
2022-09-15T16:38:27.229Z,64.22
2022-09-15T16:42:29.586Z,64.65
2022-09-15T16:46:32.963Z,67.99
2022-09-15T16:50:35.740Z,70.07
2022-09-15T16:54:47.279Z,70.15
2022-09-15T16:58:59.505Z,69.59
2022-09-15T17:03:10.053Z,71.09
2022-09-15T17:07:26.777Z,71.77
2022-09-15T17:11:32.253Z,72.64
2022-09-15T17:15:35.306Z,71.58
2022-09-15T17:19:46.077Z,73.36
2022-09-15T17:23:50.972Z,74.70
2022-09-15T17:28:24.051Z,75.09
2022-09-15T17:32:34.684Z,76.10
2022-09-15T17:36:39.607Z,75.75
2022-09-15T17:44:59.777Z,77.02
2022-09-15T17:49:01.340Z,78.15
2022-09-15T17:53:03.141Z,77.45
2022-09-15T17:57:13.544Z,77.02
2022-09-15T18:01:15.233Z,77.08
2022-09-15T18:05:27.350Z,76.78
2022-09-15T18:09:35.642Z,76.65
2022-09-15T18:13:44.143Z,76.12
2022-09-15T18:17:45.562Z,77.37
2022-09-15T18:21:51.715Z,77.87
2022-09-15T18:25:52.968Z,79.11
2022-09-15T18:30:01.024Z,79.88
2022-09-15T18:34:02.401Z,80.30
2022-09-15T18:38:04.905Z,80.18
2022-09-15T18:42:13.693Z,80.56
2022-09-15T18:46:15.383Z,81.18
2022-09-15T18:50:25.692Z,81.40
2022-09-15T18:54:27.757Z,80.48
2022-09-15T18:58:29.143Z,80.94
2022-09-15T19:02:31.539Z,81.37
2022-09-15T19:06:32.955Z,82.31
2022-09-15T19:10:34.584Z,82.62
2022-09-15T19:14:36.554Z,82.77
2022-09-15T19:18:44.357Z,82.26
2022-09-15T19:22:46.470Z,82.36
2022-09-15T19:26:48.074Z,82.33
2022-09-15T19:30:56.100Z,82.96
2022-09-15T19:34:57.572Z,82.90
2022-09-15T19:39:00.643Z,82.19
2022-09-15T19:43:02.022Z,83.50
2022-09-15T19:47:03.689Z,84.88
2022-09-15T19:51:09.153Z,84.59
2022-09-15T19:55:12.006Z,84.23
2022-09-15T19:59:13.462Z,84.06
2022-09-15T20:03:15.025Z,84.46
2022-09-15T20:07:16.362Z,85.00
2022-09-15T20:11:18.397Z,85.09
2022-09-15T20:15:24.325Z,85.35
2022-09-15T20:19:25.587Z,85.95
2022-09-15T20:23:26.921Z,85.88
2022-09-15T20:27:28.292Z,86.20
2022-09-15T20:31:30.358Z,86.24
2022-09-15T20:35:32.481Z,86.79
2022-09-15T20:39:33.754Z,87.17
2022-09-15T20:43:35.586Z,87.22
2022-09-15T20:47:43.112Z,87.25
2022-09-15T20:51:45.069Z,87.25
2022-09-15T20:55:50.053Z,87.35
2022-09-15T20:59:51.377Z,87.71
2022-09-15T21:03:55.251Z,88.50
2022-09-15T21:07:56.866Z,88.51
2022-09-15T21:11:58.181Z,88.73
2022-09-15T21:16:01.318Z,88.62
2022-09-15T21:20:03.469Z,88.73
2022-09-15T21:24:06.413Z,88.87
2022-09-15T21:28:07.811Z,89.65
2022-09-15T21:32:09.301Z,90.33
2022-09-15T21:36:12.020Z,90.59
2022-09-15T21:40:13.488Z,91.05
2022-09-15T21:44:22.232Z,91.39
2022-09-15T21:48:23.929Z,91.42
2022-09-15T21:52:25.794Z,91.93
2022-09-15T21:56:28.685Z,91.80
2022-09-15T22:00:30.073Z,91.69
2022-09-15T22:04:31.412Z,91.67
2022-09-15T22:08:32.749Z,91.66
2022-09-15T22:12:34.490Z,91.33
2022-09-15T22:16:44.304Z,91.95
2022-09-15T22:20:45.702Z,91.66
2022-09-15T22:24:54.153Z,92.77
2022-09-15T22:29:02.389Z,92.96
2022-09-15T22:33:10.493Z,93.03
2022-09-15T22:37:12.431Z,93.37
2022-09-15T22:41:24.186Z,93.86
2022-09-15T22:45:25.615Z,94.19
2022-09-15T22:49:27.341Z,93.56
2022-09-15T22:53:28.793Z,93.50
2022-09-15T22:57:30.241Z,93.63
2022-09-15T23:01:38.178Z,93.61
2022-09-15T23:05:39.548Z,94.57
2022-09-15T23:09:40.792Z,93.98
2022-09-15T23:13:42.141Z,94.45
2022-09-15T23:17:47.318Z,95.16
2022-09-15T23:21:48.729Z,95.73
2022-09-15T23:25:50.809Z,96.14
2022-09-15T23:29:52.131Z,95.71
2022-09-15T23:33:53.473Z,95.78
2022-09-15T23:37:55.140Z,96.22
2022-09-15T23:41:56.486Z,95.92
2022-09-15T23:45:57.850Z,96.10
2022-09-15T23:50:00.287Z,95.49
2022-09-15T23:54:02.865Z,95.22
2022-09-15T23:58:04.785Z,95.24
